Guelph, Ontario

2:54 AM EST on March 01, 2015 (GMT -0500)
Guelph - Closer Downtown | Change Station
CLOSE
Current Station
Personal Weather Station
Location: Guelph, ONTARIO
Elevation: 1106 ft
Nearby Weather Stations

Elev 1106 ft 43.54 °N, 80.25 °W | Updated 16 seconds ago

Mostly Cloudy
Mostly Cloudy
8.6 °F
Feels Like 9 °F
N
1.0
Wind Variable Wind from NNE
Gusts 2.0 mph

Today
High -- | Low -- °F
--% Chance of Precip.
Yesterday
High -- | Low -- °F
Precip. -- in
6:57 AM 6:09 PM
Waxing Gibbous, 83% visible
Pressure 30.59 in
Visibility 9.0 miles
Clouds Scattered Clouds 7000 ft
Mostly Cloudy 8600 ft
Windchill 9 °F
Dew Point -9 °F
Humidity 43%
Rainfall -999.00 in
Snow Depth Not available.
UV 0 out of 12
Pollen Not available.
Air Quality Not available.
Flu Activity Not available.
METAR CYKF 010700Z AUTO 00000KT 9SM SCT070 BKN086 M16/M18 A3051 RMK SLP357

More Conditions Fewer Conditions

Pressure 30.59 in
Visibility 9.0 miles
Clouds Scattered Clouds 7000 ft
Mostly Cloudy 8600 ft
Windchill 9 °F
Dew Point -9 °F
Humidity 43%
Rainfall -999.00 in
Snow Depth Not available.
UV 0 out of 12
Pollen Not available.
Air Quality Not available.
Flu Activity Not available.
METAR CYKF 010700Z AUTO 00000KT 9SM SCT070 BKN086 M16/M18 A3051 RMK SLP357

More Conditions Fewer Conditions

10-Day Weather Forecast

Almanac

Astronomy

Mar. 01, 2015 Rise Set
Actual Time
Civil Twilight
Nautical Twilight
Astronomical Twilight
Moon
Length of Visible Light
Length of Day
Tomorrow will be .
, % of the Moon is Illuminated

Today's Extremes

Country Highs Country Lows

Community

WunderPhotos

Upload Photos

1,801,347 photos uploaded!

WunderBlogs® & News

Nearby

Air Quality

  Air Quality AQ Index Pollutant
Not available.

Snow Depth

Station Depth Elevation

Earthquake Activity

City Distance Mag. Time & Date
Minimum magnitude displayed is 2.5.

Coastal Water Temperatures

Place Temperature

Nearby Weather Stations